Time;durP1;ratioP1;P1;durP2;ratioP2;P2;SDS_P1;SDS_P2;PMS_P1;PMS_P2;Temp;Humidity;BMP_temperature;BMP_pressure;BME280_temperature;BME280_humidity;BME280_pressure;Samples;Min_cycle;Max_cycle;Signal;HPM_P1;HPM_P2
2022/04/29 00:00:35;;;;;;;7.23;3.30;;;7.80;99.90;;;;;;4991679;28;20435;-69
2022/04/29 00:03:02;;;;;;;8.20;3.20;;;7.80;99.90;;;;;;4992322;28;20645;-69
2022/04/29 00:05:29;;;;;;;6.67;3.50;;;7.80;1.00;;;;;;4991518;28;20319;-69
2022/04/29 00:07:58;;;;;;;9.57;4.40;;;7.70;1.00;;;;;;4992587;28;20563;-68
2022/04/29 00:10:24;;;;;;;11.57;4.10;;;7.70;1.00;;;;;;4992089;28;20731;-69
2022/04/29 00:12:51;;;;;;;6.83;3.93;;;7.70;1.00;;;;;;4991834;28;20573;-69
2022/04/29 00:15:20;;;;;;;8.83;3.97;;;7.60;1.00;;;;;;4991745;28;20600;-69
2022/04/29 00:17:48;;;;;;;9.47;4.20;;;7.30;99.90;;;;;;4986060;28;20205;-69
2022/04/29 00:20:15;;;;;;;11.90;4.30;;;7.30;1.00;;;;;;4992493;28;20205;-69
2022/04/29 00:22:44;;;;;;;9.33;4.20;;;7.40;1.00;;;;;;4992338;28;20205;-69
2022/04/29 00:25:13;;;;;;;12.30;4.53;;;7.40;1.00;;;;;;4992715;28;20593;-69
2022/04/29 00:27:41;;;;;;;8.40;4.27;;;7.40;1.00;;;;;;4996245;28;20201;-69
2022/04/29 00:30:09;;;;;;;10.43;4.47;;;7.30;1.00;;;;;;4995937;28;20240;-69
2022/04/29 00:32:37;;;;;;;10.97;4.83;;;7.10;1.00;;;;;;4995316;28;20376;-69
2022/04/29 00:35:04;;;;;;;14.50;4.37;;;7.10;1.00;;;;;;4995457;28;20558;-69
2022/04/29 00:37:31;;;;;;;7.30;4.00;;;7.10;1.00;;;;;;4996016;28;20231;-69
2022/04/29 00:39:58;;;;;;;7.83;3.80;;;7.20;1.00;;;;;;4996157;28;20216;-69
2022/04/29 00:42:27;;;;;;;11.20;4.70;;;7.20;1.00;;;;;;4996314;28;20215;-69
2022/04/29 00:44:53;;;;;;;10.07;5.20;;;7.10;1.00;;;;;;4996094;28;20260;-69
2022/04/29 00:47:22;;;;;;;6.60;4.10;;;6.80;1.00;;;;;;4994904;28;20562;-69
2022/04/29 00:49:49;;;;;;;7.60;3.90;;;6.80;1.00;;;;;;4996223;28;20212;-69
2022/04/29 00:52:18;;;;;;;10.00;4.57;;;6.70;1.00;;;;;;4995201;28;20220;-68
2022/04/29 00:54:51;;;;;;;12.30;4.53;;;6.60;1.00;;;;;;4995197;28;20268;-69
2022/04/29 00:57:29;;;;;;;10.03;4.40;;;6.40;1.00;;;;;;4996147;28;20270;-69
2022/04/29 01:00:02;;;;;;;9.87;4.60;;;6.40;1.00;;;;;;4995561;28;20220;-68
2022/04/29 01:02:29;;;;;;;14.70;4.40;;;6.60;1.00;;;;;;4995550;28;20300;-69
2022/04/29 01:05:02;;;;;;;9.20;4.57;;;6.50;1.00;;;;;;4995079;28;20236;-68
2022/04/29 01:07:29;;;;;;;9.50;4.40;;;6.50;1.00;;;;;;4994950;28;20287;-69
2022/04/29 01:09:56;;;;;;;8.83;4.27;;;6.50;1.00;;;;;;4995352;28;20205;-69
2022/04/29 01:12:26;;;;;;;11.77;4.00;;;6.60;1.00;;;;;;4995637;28;20381;-69
2022/04/29 01:14:55;;;;;;;9.37;3.83;;;6.60;1.00;;;;;;4994460;28;20208;-69
2022/04/29 01:17:22;;;;;;;8.70;3.97;;;6.50;1.00;;;;;;4995575;28;20209;-69
2022/04/29 01:19:50;;;;;;;9.57;4.67;;;6.50;1.00;;;;;;4994691;28;20644;-68
2022/04/29 01:22:18;;;;;;;11.37;4.43;;;6.30;1.00;;;;;;4993021;28;20589;-68
2022/04/29 01:24:48;;;;;;;13.37;4.30;;;6.40;1.00;;;;;;4993746;28;20694;-68
2022/04/29 01:27:14;;;;;;;9.47;4.20;;;6.40;1.00;;;;;;4994514;28;20209;-69
2022/04/29 01:29:43;;;;;;;8.60;4.37;;;6.30;1.00;;;;;;4994599;28;20223;-69
2022/04/29 01:32:10;;;;;;;8.73;4.30;;;6.20;1.00;;;;;;4994874;28;20211;-68
2022/04/29 01:34:37;;;;;;;12.73;4.73;;;6.30;1.00;;;;;;4994804;28;20200;-68
2022/04/29 01:37:05;;;;;;;9.67;4.30;;;6.40;1.00;;;;;;4993681;28;20216;-67
2022/04/29 01:39:33;;;;;;;6.73;3.40;;;6.40;1.00;;;;;;4995041;28;20680;-68
2022/04/29 01:42:00;;;;;;;8.37;4.20;;;6.40;1.00;;;;;;4994842;28;20197;-68
2022/04/29 01:44:26;;;;;;;7.37;3.50;;;6.50;1.00;;;;;;4994640;28;20227;-68
2022/04/29 01:46:53;;;;;;;9.23;4.33;;;6.60;1.00;;;;;;4994710;28;20577;-68
2022/04/29 01:49:20;;;;;;;7.87;5.10;;;6.50;1.00;;;;;;4996169;28;20192;-68
2022/04/29 01:51:47;;;;;;;8.47;4.50;;;6.50;1.00;;;;;;4999775;28;20205;-68
2022/04/29 01:54:14;;;;;;;14.23;4.80;;;6.40;1.00;;;;;;4994994;28;20243;-68
2022/04/29 01:56:42;;;;;;;11.73;4.53;;;6.40;1.00;;;;;;4994676;28;20209;-68
2022/04/29 01:59:09;;;;;;;8.63;4.13;;;6.40;1.00;;;;;;4994494;28;20590;-68
2022/04/29 02:01:37;;;;;;;8.03;4.23;;;6.40;1.00;;;;;;4994511;28;20565;-67
2022/04/29 02:04:04;;;;;;;14.83;4.20;;;6.30;1.00;;;;;;5002421;28;20208;-68
2022/04/29 02:06:31;;;;;;;9.33;4.70;;;6.30;1.00;;;;;;5000690;28;20205;-68
2022/04/29 02:08:58;;;;;;;7.40;4.30;;;6.20;1.00;;;;;;4994325;28;20209;-68
2022/04/29 02:11:25;;;;;;;8.40;3.77;;;6.20;1.00;;;;;;4993332;28;20754;-68
2022/04/29 02:13:54;;;;;;;8.20;4.00;;;5.90;1.00;;;;;;4993683;28;20209;-68
2022/04/29 02:16:20;;;;;;;10.53;3.60;;;5.90;1.00;;;;;;4993262;28;20329;-68
2022/04/29 02:18:47;;;;;;;10.57;4.40;;;6.10;99.90;;;;;;4994276;28;20212;-68
2022/04/29 02:21:14;;;;;;;5.73;4.03;;;6.00;1.00;;;;;;4993911;28;20211;-68
2022/04/29 02:23:41;;;;;;;8.20;4.00;;;6.00;1.00;;;;;;4993747;28;20409;-68
2022/04/29 02:26:08;;;;;;;10.70;4.27;;;6.00;30.20;;;;;;4993924;28;20248;-68
2022/04/29 02:28:35;;;;;;;10.47;4.20;;;6.20;99.90;;;;;;4994380;28;20212;-68
2022/04/29 02:31:03;;;;;;;8.97;3.57;;;6.20;99.90;;;;;;4994074;28;20244;-68
2022/04/29 02:33:30;;;;;;;12.13;4.30;;;6.30;99.90;;;;;;4994564;28;20681;-68
2022/04/29 02:35:57;;;;;;;8.40;4.67;;;6.30;1.00;;;;;;4993531;28;20204;-67
2022/04/29 02:38:24;;;;;;;8.37;4.10;;;6.20;1.00;;;;;;4993455;28;20244;-68
2022/04/29 02:40:51;;;;;;;10.47;4.57;;;6.20;1.00;;;;;;4993862;28;20209;-68
2022/04/29 02:43:18;;;;;;;8.17;4.13;;;6.30;99.90;;;;;;4993576;28;20213;-68
2022/04/29 02:45:46;;;;;;;8.27;4.27;;;6.10;99.90;;;;;;4993220;28;20221;-67
2022/04/29 02:48:15;;;;;;;14.70;4.60;;;6.20;99.90;;;;;;4988095;28;20652;-67
2022/04/29 02:50:42;;;;;;;10.03;4.50;;;6.20;99.90;;;;;;4993656;28;20655;-67
2022/04/29 02:53:09;;;;;;;9.80;4.97;;;6.30;99.90;;;;;;4980187;28;20201;-68
2022/04/29 02:55:36;;;;;;;7.77;3.87;;;6.40;99.90;;;;;;4989415;28;20260;-68
2022/04/29 02:58:02;;;;;;;8.27;3.93;;;6.40;99.90;;;;;;4993765;28;20208;-67
2022/04/29 03:00:29;;;;;;;7.07;4.63;;;6.30;99.90;;;;;;4993148;28;20678;-67
2022/04/29 03:02:56;;;;;;;12.23;4.67;;;6.30;99.90;;;;;;4993573;28;20205;-67
2022/04/29 03:05:26;;;;;;;8.83;4.50;;;6.20;99.90;;;;;;4991785;28;20221;-67
2022/04/29 03:07:52;;;;;;;12.03;4.50;;;6.20;99.90;;;;;;4992734;28;20215;-67
2022/04/29 03:10:19;;;;;;;10.70;4.73;;;6.00;99.90;;;;;;4993118;28;20201;-67
2022/04/29 03:12:46;;;;;;;8.77;4.60;;;5.70;99.90;;;;;;4992145;28;20561;-67
2022/04/29 03:15:19;;;;;;;10.10;4.97;;;5.70;99.90;;;;;;4992401;28;20204;-68
2022/04/29 03:20:37;;;;;;;10.43;5.50;;;5.70;99.90;;;;;;4992822;28;20255;-68
2022/04/29 03:23:04;;;;;;;14.10;5.20;;;5.90;99.90;;;;;;4987892;28;20292;-68
2022/04/29 03:25:30;;;;;;;9.93;4.63;;;5.90;1.00;;;;;;4992651;28;20237;-67
2022/04/29 03:27:57;;;;;;;12.07;4.83;;;5.80;1.00;;;;;;4991037;28;20204;-67
2022/04/29 03:30:24;;;;;;;9.97;5.17;;;5.90;1.00;;;;;;4990409;28;20208;-67
2022/04/29 03:32:53;;;;;;;12.20;4.97;;;6.00;1.00;;;;;;4993728;28;20239;-68
2022/04/29 03:35:20;;;;;;;12.20;4.97;;;6.00;1.00;;;;;;4991874;28;20235;-67
2022/04/29 03:37:51;;;;;;;8.90;4.80;;;6.00;1.00;;;;;;4992237;28;20674;-68
2022/04/29 03:40:18;;;;;;;12.70;4.73;;;6.00;1.00;;;;;;4993360;28;20640;-67
2022/04/29 03:42:46;;;;;;;11.07;5.17;;;5.70;1.00;;;;;;4993164;28;20236;-67
2022/04/29 03:45:13;;;;;;;12.00;5.30;;;5.60;1.00;;;;;;4992188;28;20232;-68
2022/04/29 03:47:40;;;;;;;12.27;5.17;;;5.60;1.00;;;;;;4992797;28;20205;-67
2022/04/29 03:50:07;;;;;;;12.77;5.70;;;5.80;28.20;;;;;;4993028;28;20678;-68
2022/04/29 03:52:34;;;;;;;11.37;5.03;;;5.90;28.30;;;;;;4992477;28;20200;-67
2022/04/29 03:55:02;;;;;;;14.07;5.10;;;5.70;1.00;;;;;;4992811;28;20572;-68
2022/04/29 03:57:29;;;;;;;11.13;4.90;;;5.80;12.00;;;;;;4991873;28;20215;-67
2022/04/29 03:59:56;;;;;;;11.23;5.20;;;5.90;9.10;;;;;;4992189;28;20300;-67
2022/04/29 04:02:23;;;;;;;13.07;5.30;;;5.80;1.00;;;;;;4992512;28;20220;-67
2022/04/29 04:04:50;;;;;;;13.03;5.83;;;5.80;1.00;;;;;;4992675;28;20229;-67
2022/04/29 04:07:16;;;;;;;11.17;5.90;;;5.80;1.00;;;;;;4992555;28;20200;-68
2022/04/29 04:09:43;;;;;;;11.17;5.17;;;5.80;1.00;;;;;;4992058;28;20215;-67
2022/04/29 04:12:12;;;;;;;13.50;4.77;;;5.60;1.00;;;;;;4992776;28;20218;-67
2022/04/29 04:14:39;;;;;;;10.53;4.53;;;5.50;1.00;;;;;;4991944;28;20212;-68
2022/04/29 04:17:07;;;;;;;13.07;4.93;;;5.60;4.70;;;;;;4992733;28;20685;-67
2022/04/29 04:19:34;;;;;;;15.30;5.30;;;5.60;1.00;;;;;;4992307;28;20212;-68
2022/04/29 04:22:01;;;;;;;10.23;5.30;;;5.50;19.60;;;;;;4992894;28;20632;-68
2022/04/29 04:24:28;;;;;;;8.53;5.27;;;5.50;59.00;;;;;;4991780;28;20567;-68
2022/04/29 04:26:55;;;;;;;10.83;5.37;;;5.60;99.90;;;;;;4992480;28;20235;-68
2022/04/29 04:29:23;;;;;;;12.87;5.70;;;5.70;99.90;;;;;;4991898;28;20212;-68
2022/04/29 04:31:51;;;;;;;15.67;6.30;;;5.80;99.90;;;;;;4992581;28;20232;-68
2022/04/29 04:37:02;;;;;;;11.23;5.33;;;5.90;99.90;;;;;;4991218;28;20276;-68
2022/04/29 04:39:29;;;;;;;10.03;5.20;;;6.10;99.90;;;;;;4992133;28;20208;-68
2022/04/29 04:41:56;;;;;;;10.63;5.57;;;6.10;99.90;;;;;;4992337;28;20213;-68
2022/04/29 04:44:24;;;;;;;14.13;5.80;;;6.20;99.90;;;;;;4992247;28;20219;-67
2022/04/29 04:46:51;;;;;;;11.13;5.40;;;6.10;82.80;;;;;;4991700;28;20637;-68
2022/04/29 04:49:18;;;;;;;11.83;5.53;;;6.20;88.50;;;;;;4992540;28;20205;-68
2022/04/29 04:51:45;;;;;;;15.80;6.17;;;6.30;26.80;;;;;;4992426;28;20200;-68
2022/04/29 04:54:12;;;;;;;20.47;7.97;;;6.30;1.00;;;;;;4991958;28;20213;-67
2022/04/29 04:56:38;;;;;;;15.73;5.70;;;6.40;1.00;;;;;;4988412;28;20573;-67
2022/04/29 04:59:05;;;;;;;15.17;5.90;;;6.30;1.00;;;;;;4990448;28;20622;-67
2022/04/29 05:01:33;;;;;;;12.27;6.30;;;6.40;1.00;;;;;;4990488;28;20205;-67
2022/04/29 05:04:00;;;;;;;12.87;5.60;;;6.50;99.90;;;;;;4987115;28;20232;-67
2022/04/29 05:06:27;;;;;;;14.73;6.33;;;6.70;14.10;;;;;;4989984;28;20232;-67
2022/04/29 05:08:55;;;;;;;12.50;6.10;;;6.90;1.00;;;;;;4989573;28;20292;-67
2022/04/29 05:11:22;;;;;;;15.37;5.80;;;7.10;1.00;;;;;;4992549;28;20200;-68
2022/04/29 05:13:49;;;;;;;14.43;6.17;;;7.20;1.00;;;;;;4993403;28;20235;-68
2022/04/29 05:16:16;;;;;;;13.30;5.50;;;7.20;1.00;;;;;;4994304;28;20212;-68
2022/04/29 05:18:44;;;;;;;10.70;5.77;;;7.70;1.00;;;;;;4993033;28;20209;-68
2022/04/29 05:21:11;;;;;;;14.67;6.07;;;7.90;99.90;;;;;;4993375;28;20205;-68
2022/04/29 05:23:37;;;;;;;12.43;5.87;;;7.90;99.90;;;;;;4992164;28;20292;-68
2022/04/29 05:26:04;;;;;;;15.27;6.13;;;8.00;99.90;;;;;;4991178;28;20315;-68
2022/04/29 05:28:31;;;;;;;14.50;6.47;;;8.10;99.90;;;;;;4992213;28;20651;-67
2022/04/29 05:30:59;;;;;;;20.60;10.77;;;8.00;99.90;;;;;;4993377;28;20201;-68
2022/04/29 05:33:26;;;;;;;15.50;8.60;;;7.70;99.90;;;;;;4993497;28;20201;-68
2022/04/29 05:35:55;;;;;;;13.93;6.10;;;7.40;1.00;;;;;;4989616;28;20362;-68
2022/04/29 05:38:22;;;;;;;13.40;6.33;;;7.30;1.00;;;;;;4989222;28;20201;-68
2022/04/29 05:43:33;;;;;;;19.13;7.80;;;7.40;1.00;;;;;;4985981;28;20689;-68
2022/04/29 05:46:00;;;;;;;19.33;6.67;;;7.60;1.00;;;;;;4992264;28;20695;-68
2022/04/29 05:48:26;;;;;;;14.40;6.13;;;7.90;1.00;;;;;;4993616;28;20220;-68
2022/04/29 05:50:55;;;;;;;12.97;6.80;;;8.20;1.00;;;;;;4991402;28;20216;-68
2022/04/29 05:53:21;;;;;;;15.73;7.20;;;8.60;1.00;;;;;;4991402;28;20348;-68
2022/04/29 05:55:48;;;;;;;17.33;7.03;;;8.50;1.00;;;;;;4991400;28;20208;-68
2022/04/29 05:58:15;;;;;;;12.10;6.60;;;8.50;1.00;;;;;;4990574;28;20208;-68
2022/04/29 06:00:42;;;;;;;15.23;7.00;;;8.70;99.90;;;;;;4991409;28;20216;-68
2022/04/29 06:03:09;;;;;;;17.80;6.87;;;8.60;99.90;;;;;;4990687;28;20215;-68
2022/04/29 06:05:36;;;;;;;15.53;7.17;;;8.40;1.00;;;;;;4992591;28;20312;-68
2022/04/29 06:08:04;;;;;;;17.63;8.30;;;8.40;1.00;;;;;;4988967;28;20214;-68
2022/04/29 06:10:31;;;;;;;17.23;7.83;;;8.30;1.00;;;;;;4993181;28;20212;-68
2022/04/29 06:12:58;;;;;;;13.77;6.97;;;8.40;1.00;;;;;;4991660;28;20221;-68
2022/04/29 06:15:25;;;;;;;16.13;7.90;;;8.30;1.00;;;;;;4993171;28;20201;-68
2022/04/29 06:17:51;;;;;;;15.03;7.40;;;8.60;1.00;;;;;;4991496;28;20207;-68
2022/04/29 06:20:18;;;;;;;13.50;7.27;;;8.60;1.00;;;;;;4993853;28;20205;-68
2022/04/29 06:22:46;;;;;;;18.67;8.13;;;8.60;99.90;;;;;;4983655;28;20205;-68
2022/04/29 06:25:14;;;;;;;16.37;7.57;;;8.80;1.00;;;;;;4983802;28;20306;-68
2022/04/29 06:27:41;;;;;;;22.87;7.93;;;8.70;1.00;;;;;;4982949;28;20209;-68
2022/04/29 06:30:09;;;;;;;18.90;7.63;;;8.90;1.00;;;;;;4979070;28;20672;-68
2022/04/29 06:32:36;;;;;;;19.27;8.07;;;9.10;99.90;;;;;;4981935;28;20221;-68
2022/04/29 06:35:04;;;;;;;15.17;7.83;;;9.40;99.90;;;;;;4984065;28;20210;-68
2022/04/29 06:37:31;;;;;;;16.73;7.57;;;9.60;99.90;;;;;;4985788;28;20292;-68
2022/04/29 06:39:58;;;;;;;21.20;8.30;;;9.30;99.90;;;;;;4983781;28;20202;-68
2022/04/29 06:42:26;;;;;;;16.30;8.03;;;9.40;99.90;;;;;;4979008;28;20423;-68
2022/04/29 06:44:53;;;;;;;18.67;7.47;;;10.10;99.90;;;;;;4988616;28;20216;-68
2022/04/29 06:47:20;;;;;;;16.73;8.47;;;10.80;99.90;;;;;;4992708;28;20745;-68
2022/04/29 06:49:46;;;;;;;17.67;8.63;;;11.20;99.90;;;;;;4991244;28;20210;-67
2022/04/29 06:52:13;;;;;;;17.20;8.50;;;11.20;99.90;;;;;;4995942;28;20258;-68
2022/04/29 06:54:40;;;;;;;18.07;9.03;;;11.20;99.90;;;;;;4991353;28;20204;-68
2022/04/29 06:57:09;;;;;;;19.37;9.07;;;10.60;99.90;;;;;;4991196;28;20569;-68
2022/04/29 06:59:37;;;;;;;20.90;9.23;;;11.00;99.90;;;;;;4988433;28;20205;-68
2022/04/29 07:02:05;;;;;;;15.80;8.30;;;11.00;99.90;;;;;;4991807;28;20201;-68
2022/04/29 07:04:32;;;;;;;18.33;8.60;;;10.90;99.90;;;;;;4989790;28;20838;-68
2022/04/29 07:06:59;;;;;;;16.67;9.07;;;11.30;99.90;;;;;;4989975;28;20569;-68
2022/04/29 07:09:26;;;;;;;19.30;8.80;;;11.50;99.90;;;;;;4991726;28;20229;-68
2022/04/29 07:11:54;;;;;;;16.17;8.93;;;11.00;99.90;;;;;;4991670;28;20647;-68
2022/04/29 07:14:22;;;;;;;13.97;8.50;;;10.80;99.90;;;;;;4990286;28;20228;-68
2022/04/29 07:16:50;;;;;;;22.57;9.40;;;11.60;99.90;;;;;;4989276;28;20204;-68
2022/04/29 07:19:17;;;;;;;21.33;9.57;;;11.40;99.90;;;;;;4991969;28;20216;-68
2022/04/29 07:21:44;;;;;;;18.97;9.00;;;10.70;99.90;;;;;;4990500;28;20205;-68
2022/04/29 07:24:12;;;;;;;16.43;9.13;;;10.70;99.90;;;;;;4994132;28;20212;-68
2022/04/29 07:26:39;;;;;;;20.30;9.37;;;10.80;99.90;;;;;;4989118;28;20260;-68
2022/04/29 07:29:07;;;;;;;19.77;9.50;;;10.70;99.90;;;;;;4990079;28;20212;-68
2022/04/29 07:31:34;;;;;;;23.03;9.70;;;10.50;99.90;;;;;;4994234;28;20362;-68
2022/04/29 07:34:02;;;;;;;21.23;9.70;;;10.30;99.90;;;;;;4991005;28;20204;-68
2022/04/29 07:41:57;;;;;;;23.33;10.00;;;10.30;99.90;;;;;;4991161;28;20685;-71
2022/04/29 07:44:24;;;;;;;21.20;9.47;;;10.30;99.90;;;;;;4990656;28;20205;-71
2022/04/29 07:46:51;;;;;;;23.77;10.07;;;10.30;99.90;;;;;;4992522;28;20225;-73
2022/04/29 07:49:20;;;;;;;24.67;9.70;;;10.60;99.90;;;;;;4989179;28;20668;-71
2022/04/29 07:51:47;;;;;;;22.13;9.53;;;10.50;99.90;;;;;;4991535;28;20300;-71
2022/04/29 07:54:13;;;;;;;19.10;9.23;;;10.50;99.90;;;;;;4989041;28;20201;-73
2022/04/29 07:56:40;;;;;;;28.83;11.37;;;10.70;99.90;;;;;;4979081;28;20277;-71
2022/04/29 07:59:07;;;;;;;22.37;9.43;;;10.60;99.90;;;;;;4984047;28;20567;-73
2022/04/29 08:01:36;;;;;;;23.53;9.73;;;10.70;99.90;;;;;;4983554;28;20220;-73
2022/04/29 08:04:03;;;;;;;20.17;9.60;;;11.10;99.90;;;;;;4980250;28;20208;-72
2022/04/29 08:06:31;;;;;;;16.97;8.33;;;11.20;99.90;;;;;;4983828;28;20647;-73
2022/04/29 08:08:58;;;;;;;20.87;9.30;;;11.00;99.90;;;;;;4988010;28;20683;-73
2022/04/29 08:11:25;;;;;;;15.13;8.53;;;11.20;99.90;;;;;;4990798;28;20201;-71
2022/04/29 08:13:52;;;;;;;21.00;9.07;;;11.50;99.90;;;;;;4990692;28;20693;-72
2022/04/29 08:16:19;;;;;;;16.93;8.50;;;11.70;99.90;;;;;;4989976;28;20197;-72
2022/04/29 08:18:46;;;;;;;17.90;9.40;;;12.00;99.90;;;;;;4991476;28;20211;-71
2022/04/29 08:21:13;;;;;;;19.83;10.07;;;11.80;99.90;;;;;;4988722;28;20205;-71
2022/04/29 08:23:41;;;;;;;19.63;8.70;;;11.60;99.90;;;;;;4991125;28;20213;-71
2022/04/29 08:26:08;;;;;;;19.73;8.93;;;12.10;99.90;;;;;;4990110;28;20569;-72
2022/04/29 08:28:35;;;;;;;21.53;9.43;;;12.00;99.90;;;;;;4990569;28;20220;-71
2022/04/29 08:31:02;;;;;;;18.13;8.77;;;11.80;99.40;;;;;;4988481;28;20209;-72
2022/04/29 08:33:30;;;;;;;19.10;8.97;;;11.90;99.90;;;;;;4990243;28;20597;-71
2022/04/29 08:35:57;;;;;;;19.30;9.17;;;11.70;99.90;;;;;;4991034;28;20732;-72
2022/04/29 08:38:25;;;;;;;20.13;9.10;;;12.00;99.90;;;;;;4990304;28;20205;-71
2022/04/29 08:40:53;;;;;;;19.30;8.50;;;11.80;99.90;;;;;;4987600;28;20212;-72
2022/04/29 08:43:21;;;;;;;30.57;10.23;;;11.70;99.90;;;;;;4990275;28;20572;-72
2022/04/29 08:45:48;;;;;;;19.93;8.97;;;11.80;99.90;;;;;;4990808;28;20215;-71
2022/04/29 08:48:15;;;;;;;18.57;8.40;;;12.00;98.30;;;;;;4993575;28;20229;-71
2022/04/29 08:50:42;;;;;;;19.27;9.50;;;12.10;95.80;;;;;;4994910;28;20225;-71
2022/04/29 08:53:09;;;;;;;18.63;8.80;;;12.50;95.20;;;;;;4995098;28;20248;-71
2022/04/29 08:58:40;;;;;;;17.53;8.27;;;13.00;86.90;;;;;;4995486;28;20203;-71
2022/04/29 09:01:09;;;;;;;22.47;8.73;;;13.40;76.50;;;;;;4995012;28;20661;-71
2022/04/29 09:03:37;;;;;;;20.60;8.70;;;13.50;82.30;;;;;;4995751;28;20205;-71
2022/04/29 09:06:06;;;;;;;20.87;8.33;;;13.90;75.60;;;;;;4995352;28;20231;-71
2022/04/29 09:08:39;;;;;;;19.43;8.63;;;13.90;72.10;;;;;;4995950;28;20211;-71
2022/04/29 09:11:07;;;;;;;20.30;8.60;;;13.70;73.70;;;;;;4995270;28;20205;-71
2022/04/29 09:13:38;;;;;;;16.83;7.90;;;14.60;72.40;;;;;;4995822;28;20208;-71
2022/04/29 09:16:07;;;;;;;17.00;8.87;;;14.90;63.30;;;;;;4991088;28;20205;-71
2022/04/29 09:18:37;;;;;;;15.87;8.83;;;14.60;64.30;;;;;;4991973;28;20212;-71
2022/04/29 09:21:07;;;;;;;14.40;8.43;;;15.40;64.20;;;;;;4992994;28;20205;-71
2022/04/29 09:23:36;;;;;;;15.57;7.93;;;15.20;63.80;;;;;;4993310;28;20205;-71
2022/04/29 09:26:05;;;;;;;18.42;8.52;;;15.60;60.40;;;;;;4992069;28;20213;-71
2022/04/29 09:28:33;;;;;;;17.90;9.07;;;14.90;58.60;;;;;;4994059;28;20209;-71
2022/04/29 09:31:03;;;;;;;21.95;9.25;;;15.60;58.40;;;;;;4992406;28;20229;-71
2022/04/29 09:33:32;;;;;;;18.30;9.80;;;15.90;57.40;;;;;;4993680;28;20209;-71
2022/04/29 09:35:59;;;;;;;16.58;9.10;;;15.80;56.20;;;;;;4993206;28;20216;-71
2022/04/29 09:41:20;;;;;;;19.40;9.13;;;15.20;60.00;;;;;;4993025;28;20211;-71
2022/04/29 09:43:47;;;;;;;19.25;9.10;;;15.80;61.20;;;;;;4992629;28;20216;-71
2022/04/29 09:46:20;;;;;;;20.45;9.52;;;15.30;60.60;;;;;;4993817;28;20216;-71
2022/04/29 09:48:56;;;;;;;20.27;10.23;;;15.40;62.60;;;;;;4996691;28;20209;-71
2022/04/29 09:51:55;;;;;;;19.25;9.07;;;16.00;62.80;;;;;;4994661;28;20674;-71
2022/04/29 09:54:24;;;;;;;16.75;9.13;;;16.00;59.90;;;;;;4992524;28;20291;-71
2022/04/29 09:57:06;;;;;;;17.75;8.75;;;16.20;57.50;;;;;;4992773;28;20205;-71
2022/04/29 09:59:34;;;;;;;18.40;8.95;;;16.20;54.30;;;;;;4994381;28;20215;-72
2022/04/29 10:02:04;;;;;;;18.77;8.65;;;15.90;56.50;;;;;;4990551;28;20201;-72
2022/04/29 10:04:33;;;;;;;19.02;9.23;;;17.10;51.70;;;;;;4992810;28;20205;-72
2022/04/29 10:07:03;;;;;;;19.67;9.52;;;16.70;51.70;;;;;;4992364;28;20221;-71
2022/04/29 10:09:33;;;;;;;16.27;8.70;;;16.30;52.60;;;;;;4993482;28;20207;-72
2022/04/29 10:12:01;;;;;;;17.85;9.27;;;16.10;52.60;;;;;;4993874;28;20734;-71
2022/04/29 10:14:29;;;;;;;15.75;8.50;;;16.50;52.20;;;;;;4990298;28;20206;-71
2022/04/29 10:22:34;;;;;;;17.45;8.80;;;16.70;46.40;;;;;;4991391;28;20231;-71
2022/04/29 10:25:06;;;;;;;16.45;8.70;;;17.00;43.90;;;;;;4991527;28;20205;-71
2022/04/29 10:27:34;;;;;;;17.17;8.77;;;17.20;45.60;;;;;;4992300;28;20239;-72
2022/04/29 10:30:01;;;;;;;16.15;9.27;;;16.90;45.50;;;;;;4992281;28;20204;-71
2022/04/29 10:32:28;;;;;;;16.77;9.23;;;17.30;41.60;;;;;;4991989;28;20205;-71
2022/04/29 10:34:56;;;;;;;17.80;9.38;;;17.20;40.90;;;;;;4990179;28;20220;-71
2022/04/29 10:37:33;;;;;;;17.10;9.00;;;17.30;42.30;;;;;;4992101;28;20205;-71
2022/04/29 10:40:10;;;;;;;18.33;8.85;;;17.60;40.90;;;;;;4989661;28;20204;-71
2022/04/29 10:43:05;;;;;;;20.27;9.85;;;17.60;39.20;;;;;;4989661;28;20201;-71
2022/04/29 10:45:32;;;;;;;13.50;9.25;;;17.40;38.30;;;;;;4979533;28;20256;-71
2022/04/29 10:47:59;;;;;;;20.65;9.77;;;18.10;35.70;;;;;;4992163;28;20240;-71
2022/04/29 10:50:48;;;;;;;16.55;9.38;;;18.10;37.70;;;;;;4992926;28;20701;-71
2022/04/29 10:53:15;;;;;;;16.35;8.77;;;17.90;34.00;;;;;;4987306;28;20212;-71
2022/04/29 10:55:42;;;;;;;18.42;9.77;;;17.80;32.80;;;;;;4989118;28;20208;-71
2022/04/29 10:58:20;;;;;;;17.48;9.68;;;17.80;34.00;;;;;;4990772;28;20205;-71
2022/04/29 11:00:55;;;;;;;17.65;9.35;;;17.50;33.60;;;;;;4991003;28;20666;-68
2022/04/29 11:03:38;;;;;;;15.38;9.23;;;18.50;30.50;;;;;;4991715;28;20204;-68
2022/04/29 11:06:11;;;;;;;20.10;9.20;;;18.60;31.10;;;;;;4988823;28;20569;-68
2022/04/29 11:08:38;;;;;;;14.25;8.75;;;18.60;29.90;;;;;;4991349;28;20517;-68
2022/04/29 11:11:06;;;;;;;16.27;9.80;;;19.30;27.30;;;;;;4991073;28;20201;-68
2022/04/29 11:13:37;;;;;;;16.70;9.68;;;18.40;27.70;;;;;;4991992;28;20207;-68
2022/04/29 11:16:12;;;;;;;19.45;10.25;;;18.80;29.50;;;;;;4992099;28;20574;-68
2022/04/29 11:18:40;;;;;;;17.80;9.88;;;18.60;28.10;;;;;;4989210;28;20204;-68
2022/04/29 11:26:47;;;;;;;18.65;9.18;;;18.20;27.50;;;;;;4987282;28;20270;-67
2022/04/29 11:29:15;;;;;;;17.25;9.15;;;18.20;27.80;;;;;;4990244;28;20208;-67
2022/04/29 11:31:42;;;;;;;18.33;10.07;;;18.20;25.70;;;;;;4991246;28;20204;-67
2022/04/29 11:34:10;;;;;;;16.85;9.80;;;18.40;25.50;;;;;;4991332;28;20574;-68
2022/04/29 11:36:39;;;;;;;16.88;10.18;;;18.60;23.90;;;;;;4992185;28;20216;-68
2022/04/29 11:39:14;;;;;;;14.80;9.57;;;18.50;26.20;;;;;;5004051;28;20201;-68
2022/04/29 11:41:52;;;;;;;22.73;9.82;;;18.70;21.20;;;;;;4993104;28;20216;-68
2022/04/29 11:44:33;;;;;;;13.32;8.18;;;18.40;24.30;;;;;;4991288;28;20217;-68
2022/04/29 11:46:59;;;;;;;20.73;10.35;;;18.30;25.10;;;;;;4992463;28;20205;-68
2022/04/29 11:49:32;;;;;;;19.20;9.90;;;18.00;23.90;;;;;;4993064;28;20205;-68
2022/04/29 11:52:17;;;;;;;15.38;9.10;;;17.70;25.10;;;;;;4992057;28;20244;-68
2022/04/29 11:54:50;;;;;;;14.77;8.50;;;18.00;25.50;;;;;;4992057;28;20212;-68
2022/04/29 11:57:17;;;;;;;16.15;9.20;;;18.50;25.20;;;;;;4976457;28;20617;-68
2022/04/29 11:59:45;;;;;;;15.93;9.02;;;18.20;24.40;;;;;;4992294;28;20775;-68
2022/04/29 12:02:15;;;;;;;23.00;9.65;;;18.10;23.40;;;;;;4992061;28;20668;-68
2022/04/29 12:04:53;;;;;;;18.83;9.75;;;19.00;22.30;;;;;;4983044;28;20198;-68
2022/04/29 12:07:22;;;;;;;13.90;8.15;;;19.50;18.50;;;;;;4976534;28;20630;-68
2022/04/29 12:09:48;;;;;;;17.05;10.18;;;19.00;20.60;;;;;;4992555;28;20212;-68
2022/04/29 12:12:26;;;;;;;17.83;9.32;;;18.80;23.00;;;;;;4993075;28;20213;-68
2022/04/29 12:14:53;;;;;;;14.98;9.13;;;19.10;22.80;;;;;;4973169;28;20219;-68
2022/04/29 12:17:21;;;;;;;17.00;10.38;;;18.80;20.10;;;;;;4973483;28;20206;-68
2022/04/29 12:19:56;;;;;;;17.98;9.35;;;18.50;20.70;;;;;;4992294;28;20584;-68
2022/04/29 12:22:33;;;;;;;17.45;10.23;;;18.50;21.70;;;;;;4993601;28;20548;-68
2022/04/29 12:25:22;;;;;;;17.35;9.95;;;18.30;19.80;;;;;;4991233;28;20208;-68
2022/04/29 12:28:11;;;;;;;14.35;9.27;;;18.70;18.70;;;;;;4994543;28;20228;-68
2022/04/29 12:36:10;;;;;;;24.75;10.18;;;18.30;23.70;;;;;;4997694;28;20200;-68
2022/04/29 12:38:40;;;;;;;15.38;8.82;;;18.70;20.10;;;;;;4995180;28;20201;-68
2022/04/29 12:41:22;;;;;;;16.15;9.10;;;18.30;20.90;;;;;;4996925;28;20205;-68
2022/04/29 12:43:50;;;;;;;16.90;9.70;;;18.20;20.70;;;;;;4978092;28;20727;-68
2022/04/29 12:46:18;;;;;;;15.90;9.32;;;18.40;20.20;;;;;;4995252;28;20201;-68
2022/04/29 12:48:50;;;;;;;14.43;8.80;;;18.50;18.80;;;;;;4995327;28;20283;-68
2022/04/29 12:51:28;;;;;;;17.95;9.43;;;18.70;20.20;;;;;;4995785;28;20215;-68
2022/04/29 12:53:57;;;;;;;16.50;10.15;;;19.00;17.80;;;;;;4995525;28;20213;-68
2022/04/29 12:56:25;;;;;;;14.18;8.98;;;18.80;17.40;;;;;;4996265;28;20299;-68
2022/04/29 12:58:53;;;;;;;17.52;9.95;;;18.60;19.40;;;;;;4995493;28;20204;-68
2022/04/29 13:01:19;;;;;;;16.50;9.50;;;18.90;17.80;;;;;;4995305;28;20205;-68
2022/04/29 13:03:51;;;;;;;14.57;8.82;;;18.70;17.50;;;;;;4996191;28;20216;-68
2022/04/29 13:06:20;;;;;;;16.30;9.40;;;18.70;17.40;;;;;;4996139;28;20209;-68
2022/04/29 13:08:48;;;;;;;16.27;8.93;;;18.50;16.80;;;;;;4995005;28;20428;-68
2022/04/29 13:11:17;;;;;;;16.13;9.45;;;18.70;16.80;;;;;;4995733;28;20309;-68
2022/04/29 13:13:44;;;;;;;15.75;8.90;;;18.90;16.60;;;;;;4994688;28;20208;-68
2022/04/29 13:16:11;;;;;;;18.63;9.63;;;18.60;20.20;;;;;;4995656;28;20209;-68
2022/04/29 13:18:38;;;;;;;16.42;9.85;;;18.80;22.70;;;;;;4994872;28;20201;-68
2022/04/29 13:21:07;;;;;;;16.58;10.55;;;18.90;19.40;;;;;;4995810;28;20562;-68
2022/04/29 13:23:35;;;;;;;17.58;10.13;;;18.80;17.70;;;;;;4987488;28;20626;-68
2022/04/29 13:26:03;;;;;;;18.50;9.40;;;18.50;16.80;;;;;;4994169;28;20679;-68
2022/04/29 13:28:32;;;;;;;16.23;9.57;;;18.80;15.90;;;;;;4995271;28;20221;-68